Time;durP1;ratioP1;P1;durP2;ratioP2;P2;SDS_P1;SDS_P2;PMS_P1;PMS_P2;Temp;Humidity;BMP_temperature;BMP_pressure;BME280_temperature;BME280_humidity;BME280_pressure;Samples;Min_cycle;Max_cycle;Signal;HPM_P1;HPM_P2
2021/05/07 00:02:16;;;;;;;4.20;2.40;;;;;;;5.61;76.62;99820.52;128493;1101;62325;-80
2021/05/07 00:04:43;;;;;;;5.80;3.53;;;;;;;5.57;76.95;99813.94;128489;1101;62241;-77
2021/05/07 00:07:11;;;;;;;4.40;1.83;;;;;;;5.55;77.11;99826.43;128174;1103;64099;-78
2021/05/07 00:09:37;;;;;;;8.43;2.93;;;;;;;5.52;77.48;99821.48;128468;1101;62549;-80
2021/05/07 00:12:05;;;;;;;6.40;3.77;;;;;;;5.51;76.89;99819.84;128414;1101;62321;-78
2021/05/07 00:14:32;;;;;;;4.33;2.43;;;;;;;5.50;77.47;99823.45;128430;1101;62208;-76
2021/05/07 00:16:59;;;;;;;4.70;2.17;;;;;;;5.47;77.46;99821.97;128382;1101;62480;-77
2021/05/07 00:19:26;;;;;;;3.47;1.90;;;;;;;5.46;76.65;99827.39;128497;1101;62148;-77
2021/05/07 00:21:53;;;;;;;6.10;2.77;;;;;;;5.46;77.07;99830.02;128443;1101;62059;-77
2021/05/07 00:24:19;;;;;;;3.80;2.57;;;;;;;5.48;76.74;99826.27;128373;1101;62216;-77
2021/05/07 00:26:46;;;;;;;6.27;3.27;;;;;;;5.49;77.01;99827.89;128462;1101;62012;-78
2021/05/07 00:29:13;;;;;;;6.77;3.40;;;;;;;5.51;77.66;99836.45;128468;1101;62326;-79
2021/05/07 00:31:39;;;;;;;4.60;3.23;;;;;;;5.52;77.34;99837.27;128449;1101;62171;-79
2021/05/07 00:34:06;;;;;;;7.17;3.87;;;;;;;5.50;78.33;99840.08;128466;1101;62251;-78
2021/05/07 00:36:33;;;;;;;8.13;3.80;;;;;;;5.51;77.82;99843.52;128441;1101;62248;-78
2021/05/07 00:39:00;;;;;;;4.67;3.30;;;;;;;5.50;77.98;99840.08;128470;1101;62177;-79
2021/05/07 00:41:26;;;;;;;8.17;3.67;;;;;;;5.50;78.77;99833.97;128495;1101;61987;-79
2021/05/07 00:43:53;;;;;;;8.63;3.60;;;;;;;5.51;78.88;99843.52;128500;1101;61996;-79
2021/05/07 00:46:20;;;;;;;4.97;3.13;;;;;;;5.50;78.67;99845.34;128483;1101;63855;-79
2021/05/07 00:48:47;;;;;;;4.80;3.23;;;;;;;5.48;78.59;99841.20;128486;1101;62093;-79
2021/05/07 00:51:15;;;;;;;7.80;3.90;;;;;;;5.45;79.77;99846.80;128478;1101;61987;-78
2021/05/07 00:53:42;;;;;;;8.40;4.43;;;;;;;5.44;79.01;99850.40;128478;1101;62110;-78
2021/05/07 00:56:09;;;;;;;7.10;3.93;;;;;;;5.42;79.87;99836.59;128184;1102;62052;-79
2021/05/07 00:58:35;;;;;;;8.43;3.97;;;;;;;5.39;79.55;99839.55;128486;1101;62821;-79
2021/05/07 01:01:02;;;;;;;4.13;2.40;;;;;;;5.35;81.62;99840.86;128393;1101;61856;-79
2021/05/07 01:03:29;;;;;;;5.80;3.43;;;;;;;5.34;80.26;99840.05;128527;1101;62101;-79
2021/05/07 01:05:56;;;;;;;4.63;2.80;;;;;;;5.30;76.21;99836.91;128440;1101;62223;-79
2021/05/07 01:08:22;;;;;;;3.07;2.00;;;;;;;5.29;75.18;99834.44;128405;1101;62088;-78
2021/05/07 01:10:52;;;;;;;4.13;2.17;;;;;;;5.27;76.37;99837.25;128157;1101;62751;-78
2021/05/07 01:13:18;;;;;;;6.23;2.67;;;;;;;5.28;75.27;99833.62;128446;1101;62133;-79
2021/05/07 01:15:45;;;;;;;5.45;3.20;;;;;;;5.33;75.96;99827.87;128441;1101;62113;-79
2021/05/07 01:18:12;;;;;;;5.47;3.23;;;;;;;5.37;75.04;99825.75;128447;1101;62278;-78
2021/05/07 01:20:39;;;;;;;4.30;2.67;;;;;;;5.37;75.45;99828.38;128465;1101;62543;-79
2021/05/07 01:23:08;;;;;;;6.37;2.97;;;;;;;5.36;75.39;99837.27;128449;1101;62347;-79
2021/05/07 01:25:41;;;;;;;3.80;2.35;;;;;;;5.34;75.58;99833.97;128407;1101;62291;-79
2021/05/07 01:28:13;;;;;;;2.80;1.70;;;;;;;5.30;76.43;99833.47;128464;1101;62008;-79
2021/05/07 01:30:48;;;;;;;2.93;1.73;;;;;;;5.27;77.39;99823.25;128469;1101;62354;-79
2021/05/07 01:33:15;;;;;;;8.45;3.80;;;;;;;5.24;78.07;99834.92;128280;1101;62104;-79
2021/05/07 01:35:44;;;;;;;5.63;3.17;;;;;;;5.24;77.56;99840.19;128395;1101;62330;-79
2021/05/07 01:38:13;;;;;;;8.50;4.50;;;;;;;5.26;78.31;99842.66;128441;1101;62256;-78
2021/05/07 01:40:42;;;;;;;7.13;3.70;;;;;;;5.27;78.21;99837.25;128454;1101;62224;-79
2021/05/07 01:43:10;;;;;;;9.40;4.50;;;;;;;5.28;77.73;99833.62;128437;1101;62122;-79
2021/05/07 01:45:39;;;;;;;8.47;5.00;;;;;;;5.29;78.89;99839.69;128446;1101;63903;-79
2021/05/07 01:48:07;;;;;;;6.70;4.47;;;;;;;5.28;78.25;99838.88;128303;1101;62819;-79
2021/05/07 01:50:39;;;;;;;6.83;3.57;;;;;;;5.29;78.54;99843.17;128409;1101;62104;-79
2021/05/07 01:53:07;;;;;;;5.87;3.17;;;;;;;5.31;78.57;99842.98;128380;1101;64152;-79
2021/05/07 01:55:42;;;;;;;5.63;3.83;;;;;;;5.31;78.59;99846.46;128457;1101;62050;-79
2021/05/07 01:58:14;;;;;;;4.17;1.97;;;;;;;5.31;80.14;99851.72;128432;1101;62428;-78
2021/05/07 02:00:41;;;;;;;6.90;4.67;;;;;;;5.27;79.73;99854.81;128306;1101;62186;-77
2021/05/07 02:03:08;;;;;;;6.63;4.33;;;;;;;5.25;79.30;99856.80;128414;1101;62288;-77
2021/05/07 02:05:35;;;;;;;6.93;4.07;;;;;;;5.26;79.46;99861.88;128447;1101;62158;-77
2021/05/07 02:08:06;;;;;;;7.07;4.30;;;;;;;5.27;79.33;99863.55;128393;1101;61969;-78
2021/05/07 02:10:34;;;;;;;7.30;4.27;;;;;;;5.27;79.88;99863.55;128369;1101;62240;-77
2021/05/07 02:13:05;;;;;;;11.03;4.90;;;;;;;5.25;80.41;99873.40;128434;1101;62302;-78
2021/05/07 02:15:31;;;;;;;3.53;1.70;;;;;;;5.20;80.71;99870.41;128463;1101;62042;-77
2021/05/07 02:17:58;;;;;;;7.73;4.30;;;;;;;5.13;80.61;99874.67;128431;1101;62040;-78
2021/05/07 02:20:26;;;;;;;6.60;3.50;;;;;;;5.08;80.72;99882.23;128441;1101;62026;-78
2021/05/07 02:22:54;;;;;;;6.30;1.97;;;;;;;5.03;79.53;99877.42;128490;1101;62084;-77
2021/05/07 02:25:24;;;;;;;6.57;3.73;;;;;;;4.96;79.08;99894.00;128455;1101;62450;-77
2021/05/07 02:27:53;;;;;;;5.83;3.50;;;;;;;4.79;80.38;99896.55;128423;1101;62114;-77
2021/05/07 02:30:23;;;;;;;3.60;2.50;;;;;;;4.61;80.85;99903.67;128463;1095;62515;-78
2021/05/07 02:32:49;;;;;;;4.47;3.17;;;;;;;4.45;79.36;99902.60;128490;1101;62523;-80
2021/05/07 02:35:17;;;;;;;4.47;2.63;;;;;;;4.32;80.31;99907.45;128513;1101;63352;-81
2021/05/07 02:37:44;;;;;;;5.30;3.03;;;;;;;4.19;81.98;99909.66;128469;1101;62181;-81
2021/05/07 02:40:11;;;;;;;6.60;4.57;;;;;;;4.06;83.01;99908.25;128464;1101;62282;-82
2021/05/07 02:42:38;;;;;;;6.30;4.33;;;;;;;3.94;83.70;99913.89;128480;1101;62330;-81
2021/05/07 02:45:07;;;;;;;6.07;3.70;;;;;;;3.83;84.51;99915.77;128519;1101;62304;-82
2021/05/07 02:47:35;;;;;;;5.70;3.67;;;;;;;3.73;83.75;99922.06;128270;1101;62496;-82
2021/05/07 02:50:05;;;;;;;4.20;2.65;;;;;;;3.63;83.49;99928.21;128469;1101;62822;-82
2021/05/07 02:52:31;;;;;;;6.77;3.10;;;;;;;3.55;84.58;99925.50;128499;1101;62198;-82
2021/05/07 02:54:58;;;;;;;4.70;3.27;;;;;;;3.47;84.68;99933.28;128480;1101;62408;-81
2021/05/07 02:57:24;;;;;;;5.03;3.43;;;;;;;3.39;85.77;99931.38;128537;1101;62602;-81
2021/05/07 02:59:51;;;;;;;8.20;4.97;;;;;;;3.37;85.80;99922.84;128478;1101;62081;-81
2021/05/07 03:02:17;;;;;;;8.87;4.90;;;;;;;3.36;86.12;99922.98;128478;1101;62328;-81
2021/05/07 03:04:45;;;;;;;5.27;3.57;;;;;;;3.35;85.84;99929.20;128161;1101;62128;-80
2021/05/07 03:07:12;;;;;;;8.20;4.63;;;;;;;3.35;86.11;99929.20;128489;1101;62529;-81
2021/05/07 03:09:38;;;;;;;6.57;4.17;;;;;;;3.34;86.12;99933.63;128522;1101;62168;-82
2021/05/07 03:12:05;;;;;;;4.17;2.60;;;;;;;3.31;86.80;99933.91;128350;1101;62122;-81
2021/05/07 03:14:32;;;;;;;8.60;4.23;;;;;;;3.33;86.27;99936.39;128455;1101;62234;-81
2021/05/07 03:16:59;;;;;;;5.63;3.13;;;;;;;3.35;87.59;99937.89;128444;1101;62172;-81
2021/05/07 03:19:25;;;;;;;7.17;4.33;;;;;;;3.35;87.54;99943.13;128480;1101;62335;-81
2021/05/07 03:21:52;;;;;;;7.97;5.23;;;;;;;3.37;87.40;99948.23;128537;1101;62260;-81
2021/05/07 03:24:18;;;;;;;5.00;2.97;;;;;;;3.37;88.06;99956.09;128530;1101;62482;-81
2021/05/07 03:26:45;;;;;;;7.83;4.93;;;;;;;3.37;87.63;99954.30;128504;1101;62295;-81
2021/05/07 03:29:11;;;;;;;9.40;5.83;;;;;;;3.37;88.06;99953.48;128496;1101;62390;-81
2021/05/07 03:31:38;;;;;;;8.17;5.53;;;;;;;3.38;88.18;99962.98;128506;1101;62769;-81
2021/05/07 03:34:04;;;;;;;9.07;6.23;;;;;;;3.40;88.19;99968.91;128491;1101;62387;-80
2021/05/07 03:36:32;;;;;;;9.23;5.60;;;;;;;3.40;88.29;99964.51;128464;1102;62466;-81
2021/05/07 03:38:58;;;;;;;7.10;4.57;;;;;;;3.41;88.15;99971.39;128451;1101;62652;-81
2021/05/07 03:41:25;;;;;;;7.43;4.80;;;;;;;3.39;87.80;99972.52;128501;1101;62204;-81
2021/05/07 03:43:52;;;;;;;3.27;2.60;;;;;;;3.37;87.88;99977.07;128486;1101;63021;-79
2021/05/07 03:46:19;;;;;;;5.17;3.33;;;;;;;3.31;86.66;99983.71;128467;1101;62098;-79
2021/05/07 03:48:48;;;;;;;6.10;3.63;;;;;;;3.24;86.33;99983.47;128278;1101;62113;-80
2021/05/07 03:51:14;;;;;;;4.80;2.90;;;;;;;3.14;87.26;99989.73;128263;1102;62823;-79
2021/05/07 03:53:41;;;;;;;6.10;3.43;;;;;;;3.05;86.84;99999.28;128413;1101;62474;-79
2021/05/07 03:56:08;;;;;;;6.17;3.47;;;;;;;2.97;87.02;99999.98;128526;1101;61900;-79
2021/05/07 03:58:35;;;;;;;5.67;3.40;;;;;;;2.89;87.41;100002.52;128550;1101;62320;-80
2021/05/07 04:01:04;;;;;;;5.87;2.93;;;;;;;2.83;88.01;100010.94;128546;1101;62058;-80
2021/05/07 04:03:31;;;;;;;7.73;5.23;;;;;;;2.82;87.44;99999.61;128446;1101;63044;-80
2021/05/07 04:05:57;;;;;;;5.30;2.90;;;;;;;2.82;88.07;100002.23;128476;1101;62537;-80
2021/05/07 04:08:27;;;;;;;7.03;4.77;;;;;;;2.85;87.79;100014.25;128249;1101;62380;-81
2021/05/07 04:11:04;;;;;;;9.53;5.20;;;;;;;2.86;87.94;100011.46;128274;1102;62199;-80
2021/05/07 04:13:40;;;;;;;7.60;4.03;;;;;;;2.84;87.52;100008.16;128504;1101;62201;-80
2021/05/07 04:16:07;;;;;;;7.83;5.13;;;;;;;2.86;87.61;100008.84;128485;1101;62807;-79
2021/05/07 04:18:39;;;;;;;4.50;2.60;;;;;;;2.88;87.47;100015.75;128533;1101;62093;-79
2021/05/07 04:21:06;;;;;;;8.80;4.70;;;;;;;2.89;87.93;100027.86;128559;1101;62096;-80
2021/05/07 04:23:33;;;;;;;10.27;5.83;;;;;;;2.92;87.39;100038.08;128508;1101;62216;-80
2021/05/07 04:26:00;;;;;;;6.47;3.77;;;;;;;2.92;88.01;100040.70;128519;1101;62122;-80
2021/05/07 04:28:27;;;;;;;10.23;5.07;;;;;;;2.94;88.03;100038.77;128481;1102;62916;-79
2021/05/07 04:30:54;;;;;;;7.67;4.27;;;;;;;2.94;88.77;100042.20;128184;1101;62392;-80
2021/05/07 04:33:20;;;;;;;8.47;5.20;;;;;;;2.96;88.82;100044.69;128509;1101;61843;-80
2021/05/07 04:35:47;;;;;;;7.13;4.60;;;;;;;2.96;88.62;100053.36;128491;1101;62249;-80
2021/05/07 04:38:14;;;;;;;4.70;2.70;;;;;;;2.97;88.38;100062.05;128476;1101;62107;-80
2021/05/07 04:40:40;;;;;;;5.53;3.60;;;;;;;2.96;88.94;100060.41;128451;1101;63038;-80
2021/05/07 04:43:08;;;;;;;4.17;2.33;;;;;;;2.93;89.14;100058.05;128464;1101;62091;-80
2021/05/07 04:45:36;;;;;;;6.60;3.40;;;;;;;2.95;88.81;100064.80;128474;1101;62297;-80
2021/05/07 04:48:10;;;;;;;9.30;5.37;;;;;;;2.99;88.53;100065.35;128518;1101;62147;-79
2021/05/07 04:50:37;;;;;;;7.00;3.50;;;;;;;3.01;88.51;100063.41;128465;1101;62100;-79
2021/05/07 04:53:03;;;;;;;6.30;3.93;;;;;;;3.05;89.19;100080.51;128294;1102;62545;-80
2021/05/07 04:55:30;;;;;;;8.00;5.17;;;;;;;3.08;88.82;100068.91;127367;1096;63601;-78
2021/05/07 04:57:57;;;;;;;8.63;5.27;;;;;;;3.11;88.65;100068.65;128492;1101;62029;-79
2021/05/07 05:00:24;;;;;;;9.30;5.10;;;;;;;3.18;88.90;100080.20;128385;1101;62210;-79
2021/05/07 05:02:50;;;;;;;7.00;4.93;;;;;;;3.20;88.86;100079.09;128426;1101;62437;-79
2021/05/07 05:05:18;;;;;;;8.63;5.67;;;;;;;3.22;89.45;100098.12;128257;1101;61937;-79
2021/05/07 05:07:49;;;;;;;6.90;4.77;;;;;;;3.23;89.38;100091.07;128454;1101;62098;-79
2021/05/07 05:10:15;;;;;;;10.53;6.43;;;;;;;3.27;90.05;100089.82;128177;1101;62178;-79
2021/05/07 05:12:42;;;;;;;10.33;5.97;;;;;;;3.31;89.91;100093.00;128475;1101;62002;-79
2021/05/07 05:15:09;;;;;;;8.05;4.65;;;;;;;3.37;89.82;100098.48;128465;1101;62083;-79
2021/05/07 05:17:36;;;;;;;7.70;4.37;;;;;;;3.44;89.18;100090.88;128239;1101;62855;-76
2021/05/07 05:20:04;;;;;;;7.57;4.90;;;;;;;3.52;89.31;100100.66;128364;1101;62210;-77
2021/05/07 05:22:31;;;;;;;5.20;2.93;;;;;;;3.60;88.52;100106.83;128112;1101;62573;-77
2021/05/07 05:24:58;;;;;;;6.23;3.97;;;;;;;3.60;88.39;100101.58;128438;1101;62286;-77
2021/05/07 05:27:24;;;;;;;7.03;3.70;;;;;;;3.65;88.31;100098.52;128475;1101;62243;-77
2021/05/07 05:29:51;;;;;;;7.27;3.63;;;;;;;3.67;88.08;100104.45;128417;1101;62484;-76
2021/05/07 05:32:17;;;;;;;6.00;3.33;;;;;;;3.67;88.04;100107.89;128268;1102;63876;-76
2021/05/07 05:34:45;;;;;;;4.53;2.93;;;;;;;3.67;86.88;100113.14;128427;1101;62607;-77
2021/05/07 05:37:12;;;;;;;5.80;3.73;;;;;;;3.59;86.48;100115.68;128467;1101;62245;-75
2021/05/07 05:39:38;;;;;;;5.30;3.20;;;;;;;3.65;87.34;100109.02;128438;1101;62214;-74
2021/05/07 05:42:25;;;;;;;8.40;4.10;;;;;;;3.72;86.92;100119.75;128487;1101;64803;-74
2021/05/07 05:44:54;;;;;;;5.57;3.70;;;;;;;3.76;86.78;100121.11;128453;1101;62247;-74
2021/05/07 05:47:20;;;;;;;4.80;2.70;;;;;;;3.88;87.43;100119.95;128435;1101;61997;-74
2021/05/07 05:49:47;;;;;;;6.73;4.10;;;;;;;3.94;87.09;100124.63;128442;1101;62312;-74
2021/05/07 05:52:13;;;;;;;8.40;4.87;;;;;;;4.14;87.12;100129.77;128467;1101;62301;-74
2021/05/07 05:54:40;;;;;;;5.70;3.03;;;;;;;4.28;85.71;100142.41;128454;1101;62207;-75
2021/05/07 05:57:07;;;;;;;7.87;5.20;;;;;;;4.35;86.39;100142.63;128466;1101;61955;-74
2021/05/07 05:59:34;;;;;;;5.67;3.60;;;;;;;4.39;86.51;100150.06;128252;1101;62426;-74
2021/05/07 06:02:01;;;;;;;9.90;6.27;;;;;;;4.39;86.24;100144.81;128440;1101;62152;-75
2021/05/07 06:04:27;;;;;;;7.87;5.53;;;;;;;4.39;85.92;100150.06;128438;1101;62262;-74
2021/05/07 06:06:54;;;;;;;8.90;4.67;;;;;;;4.33;86.21;100150.65;128460;1101;62177;-74
2021/05/07 06:09:21;;;;;;;11.30;6.20;;;;;;;4.39;86.06;100150.06;128458;1101;62106;-74
2021/05/07 06:11:47;;;;;;;8.10;5.30;;;;;;;4.39;85.86;100163.19;128458;1101;62086;-74
2021/05/07 06:14:14;;;;;;;9.47;5.10;;;;;;;4.45;86.13;100161.78;128395;1101;62238;-74
2021/05/07 06:16:43;;;;;;;9.30;5.97;;;;;;;4.44;85.72;100168.84;128415;1101;62237;-74
2021/05/07 06:19:10;;;;;;;6.63;4.83;;;;;;;4.43;86.25;100172.43;128425;1101;62421;-74
2021/05/07 06:21:37;;;;;;;10.27;5.77;;;;;;;4.40;85.70;100185.02;128397;1101;62329;-74
2021/05/07 06:24:04;;;;;;;10.73;7.10;;;;;;;4.43;85.71;100185.56;128442;1101;62309;-74
2021/05/07 06:26:31;;;;;;;12.10;8.57;;;;;;;4.43;85.32;100182.93;128450;1101;61980;-75
2021/05/07 06:28:58;;;;;;;6.80;4.07;;;;;;;4.44;86.10;100181.13;128463;1101;62151;-74
2021/05/07 06:31:24;;;;;;;13.23;8.40;;;;;;;4.43;85.08;100184.74;128361;1101;62090;-74
2021/05/07 06:33:51;;;;;;;12.23;6.50;;;;;;;4.50;85.67;100183.16;128164;1101;62141;-74
2021/05/07 06:36:20;;;;;;;13.03;7.23;;;;;;;4.51;85.22;100189.27;128403;1101;62743;-74
2021/05/07 06:38:46;;;;;;;11.03;6.33;;;;;;;4.54;84.68;100183.70;128429;1101;62300;-74
2021/05/07 06:41:13;;;;;;;10.57;6.60;;;;;;;4.58;85.02;100185.06;128407;1101;62134;-73
2021/05/07 06:43:40;;;;;;;7.33;3.00;;;;;;;4.62;85.69;100192.48;128160;1101;62359;-73
2021/05/07 06:46:06;;;;;;;9.33;5.90;;;;;;;4.67;84.85;100203.37;128384;1101;62342;-73
2021/05/07 06:48:33;;;;;;;10.87;7.23;;;;;;;4.70;84.30;100200.46;128447;1101;62450;-73
2021/05/07 06:51:00;;;;;;;10.87;6.03;;;;;;;4.76;84.24;100209.56;128415;1101;62367;-73
2021/05/07 06:53:26;;;;;;;9.30;5.47;;;;;;;4.75;83.52;100200.01;128211;1101;62178;-73
2021/05/07 06:55:53;;;;;;;8.77;6.10;;;;;;;4.78;84.06;100202.36;128401;1101;61999;-74
2021/05/07 06:58:40;;;;;;;11.77;6.37;;;;;;;4.84;83.73;100216.67;128400;1101;62536;-74
2021/05/07 07:01:07;;;;;;;7.33;4.30;;;;;;;4.96;83.77;100214.67;128463;1101;62548;-73
2021/05/07 07:03:33;;;;;;;8.97;5.80;;;;;;;5.11;83.91;100213.16;128446;1101;64010;-73
2021/05/07 07:06:00;;;;;;;8.23;5.20;;;;;;;5.37;82.31;100217.63;128429;1101;63050;-73
2021/05/07 07:08:26;;;;;;;11.13;6.53;;;;;;;5.47;80.74;100221.81;128482;1101;63117;-74
2021/05/07 07:10:56;;;;;;;13.53;5.53;;;;;;;5.46;80.18;100222.81;128425;1101;62042;-74
2021/05/07 07:13:22;;;;;;;11.13;6.50;;;;;;;5.45;80.74;100236.11;128461;1101;62058;-74
2021/05/07 07:15:49;;;;;;;9.60;5.93;;;;;;;5.43;78.56;100235.44;128437;1102;62170;-73
2021/05/07 07:18:22;;;;;;;8.67;4.57;;;;;;;5.48;78.97;100227.90;128491;1101;62038;-71
2021/05/07 07:20:49;;;;;;;6.43;4.60;;;;;;;5.51;80.15;100241.58;128486;1101;62096;-73
2021/05/07 07:23:16;;;;;;;7.90;4.57;;;;;;;5.59;79.84;100227.67;128438;1101;61990;-73
2021/05/07 07:25:44;;;;;;;10.50;6.83;;;;;;;5.72;79.67;100232.52;128356;1101;62208;-73
2021/05/07 07:28:11;;;;;;;8.17;6.10;;;;;;;5.84;78.81;100240.97;128465;1101;62436;-74
2021/05/07 07:30:38;;;;;;;9.63;6.63;;;;;;;5.97;78.17;100233.53;128367;1101;62254;-74
2021/05/07 07:33:05;;;;;;;9.80;6.37;;;;;;;5.99;77.23;100236.80;128177;1101;62906;-73
2021/05/07 07:35:33;;;;;;;8.03;5.60;;;;;;;5.98;75.93;100250.14;128436;1101;62310;-74
2021/05/07 07:37:59;;;;;;;7.00;3.60;;;;;;;5.96;76.44;100245.03;128466;1101;62256;-72
2021/05/07 07:40:26;;;;;;;8.13;5.10;;;;;;;6.00;76.67;100246.37;128347;1101;64259;-74
2021/05/07 07:42:52;;;;;;;9.33;6.93;;;;;;;6.04;75.63;100242.45;128389;1101;62453;-73
2021/05/07 07:45:20;;;;;;;8.57;6.00;;;;;;;6.01;76.05;100253.27;128419;1101;62464;-73
2021/05/07 07:47:46;;;;;;;8.87;5.53;;;;;;;5.98;77.21;100250.97;128663;1101;62226;-73
2021/05/07 07:50:14;;;;;;;7.33;5.20;;;;;;;5.87;75.58;100259.10;128375;1101;62284;-75
2021/05/07 07:52:40;;;;;;;9.73;6.67;;;;;;;5.79;77.43;100269.58;128444;1101;63582;-75
2021/05/07 07:55:08;;;;;;;5.50;3.73;;;;;;;5.63;76.80;100276.38;128161;1102;62187;-74
2021/05/07 07:57:35;;;;;;;10.33;5.43;;;;;;;5.53;77.26;100274.81;128261;1101;62517;-74
2021/05/07 08:00:05;;;;;;;6.60;4.27;;;;;;;5.48;77.13;100277.88;128466;1101;62143;-74
2021/05/07 08:02:31;;;;;;;7.33;4.40;;;;;;;5.49;77.33;100285.63;128442;1101;62095;-74
2021/05/07 08:04:58;;;;;;;8.27;3.10;;;;;;;5.59;76.32;100284.70;128453;1101;62070;-74
2021/05/07 08:07:24;;;;;;;5.57;3.87;;;;;;;5.60;74.65;100296.90;128436;1101;63204;-75
2021/05/07 08:09:51;;;;;;;7.67;4.40;;;;;;;5.59;74.83;100295.23;128452;1101;62129;-75
2021/05/07 08:12:18;;;;;;;4.73;3.43;;;;;;;5.50;74.84;100313.61;128448;1101;62103;-75
2021/05/07 08:14:44;;;;;;;6.50;3.05;;;;;;;5.49;74.70;100301.41;128439;1101;62211;-75
2021/05/07 08:17:14;;;;;;;4.77;2.77;;;;;;;5.50;75.37;100315.39;128168;1101;62000;-75
2021/05/07 08:19:44;;;;;;;4.57;2.70;;;;;;;5.48;76.46;100309.45;128439;1101;62398;-74
2021/05/07 08:22:11;;;;;;;5.43;3.90;;;;;;;5.52;74.31;100321.33;128429;1101;62738;-73
2021/05/07 08:24:37;;;;;;;4.47;3.13;;;;;;;5.60;74.43;100329.30;128288;1101;62583;-74
2021/05/07 08:27:04;;;;;;;5.70;4.00;;;;;;;5.68;75.05;100328.55;128426;1101;62690;-73
2021/05/07 08:29:32;;;;;;;4.33;3.10;;;;;;;5.80;74.29;100329.97;128441;1101;61945;-74
2021/05/07 08:31:58;;;;;;;6.30;2.93;;;;;;;6.01;74.36;100329.63;128218;1101;62428;-73
2021/05/07 08:34:25;;;;;;;5.47;2.63;;;;;;;6.17;72.42;100330.73;128411;1101;62061;-72
2021/05/07 08:36:52;;;;;;;6.20;3.53;;;;;;;6.46;73.38;100338.29;128448;1101;62115;-72
2021/05/07 08:39:19;;;;;;;4.30;2.83;;;;;;;6.72;72.74;100338.27;128445;1101;62157;-73
2021/05/07 08:41:49;;;;;;;4.07;2.80;;;;;;;6.88;70.46;100345.40;128296;1101;62213;-73
2021/05/07 08:44:18;;;;;;;4.73;2.83;;;;;;;6.93;67.74;100354.49;128461;1101;62072;-73
2021/05/07 08:46:45;;;;;;;3.70;2.67;;;;;;;6.94;67.47;100348.22;128440;1101;62870;-73
2021/05/07 08:49:18;;;;;;;4.70;3.00;;;;;;;6.99;68.77;100362.73;128400;1101;62323;-73
2021/05/07 08:51:45;;;;;;;4.17;2.87;;;;;;;7.01;67.74;100366.05;128456;1101;62052;-73
2021/05/07 08:54:12;;;;;;;4.03;2.53;;;;;;;6.90;69.36;100360.07;128486;1101;61980;-73
2021/05/07 08:56:40;;;;;;;4.67;2.70;;;;;;;6.91;69.75;100367.02;128462;1101;62356;-73
2021/05/07 08:59:08;;;;;;;3.63;2.53;;;;;;;6.83;70.78;100366.98;128440;1101;62478;-73
2021/05/07 09:01:39;;;;;;;3.57;2.47;;;;;;;6.80;71.12;100374.36;128358;1101;62046;-74
2021/05/07 09:04:14;;;;;;;5.33;3.37;;;;;;;6.77;70.76;100379.97;128222;1102;62128;-74
2021/05/07 09:06:50;;;;;;;4.75;2.83;;;;;;;6.70;69.12;100382.41;128444;1101;62137;-73
2021/05/07 09:09:22;;;;;;;5.27;2.90;;;;;;;6.65;69.49;100392.58;128273;1101;62305;-74
2021/05/07 09:11:50;;;;;;;5.27;3.60;;;;;;;6.51;70.78;100397.45;128495;1101;62508;-73
2021/05/07 09:14:17;;;;;;;3.73;1.60;;;;;;;6.28;71.57;100397.14;128499;1101;62166;-74
2021/05/07 09:16:59;;;;;;;3.83;2.77;;;;;;;6.24;72.14;100402.88;128423;1101;62700;-73
2021/05/07 09:19:29;;;;;;;4.53;2.90;;;;;;;6.11;73.47;100409.36;128428;1101;62314;-75
2021/05/07 09:21:59;;;;;;;4.30;2.53;;;;;;;6.03;73.61;100411.93;128465;1101;63993;-74
2021/05/07 09:24:34;;;;;;;5.40;3.50;;;;;;;5.97;73.25;100423.09;128425;1101;64463;-73
2021/05/07 09:27:06;;;;;;;5.57;3.63;;;;;;;6.08;74.01;100414.13;128081;1101;62206;-72
2021/05/07 09:29:35;;;;;;;3.87;2.53;;;;;;;6.36;74.41;100425.36;128460;1101;62132;-74
2021/05/07 09:32:03;;;;;;;4.67;3.10;;;;;;;6.62;73.77;100420.08;128475;1101;62152;-73
2021/05/07 09:34:36;;;;;;;5.33;3.07;;;;;;;6.74;72.96;100423.30;128427;1101;62345;-74
2021/05/07 09:37:14;;;;;;;5.93;3.60;;;;;;;6.74;72.41;100425.93;128523;1101;61997;-74
2021/05/07 09:39:41;;;;;;;3.93;3.20;;;;;;;6.87;71.32;100428.95;128411;1101;63827;-72
2021/05/07 09:42:08;;;;;;;2.97;2.30;;;;;;;6.93;68.97;100430.97;128485;1101;61604;-73
2021/05/07 09:44:35;;;;;;;3.83;2.50;;;;;;;7.09;67.89;100438.11;128161;1101;62583;-73
2021/05/07 09:47:15;;;;;;;2.77;1.60;;;;;;;7.25;65.77;100436.55;128432;1101;62239;-73
2021/05/07 09:49:43;;;;;;;4.50;2.73;;;;;;;7.50;63.20;100434.78;128388;1101;62282;-78
2021/05/07 09:52:09;;;;;;;2.33;1.60;;;;;;;7.61;61.14;100445.06;128398;1101;62398;-79
2021/05/07 09:54:38;;;;;;;2.50;1.60;;;;;;;7.86;60.70;100445.08;128170;1101;62326;-78
2021/05/07 09:57:06;;;;;;;3.33;2.00;;;;;;;8.06;59.59;100475.48;128424;1101;62059;-78
2021/05/07 09:59:36;;;;;;;3.90;2.23;;;;;;;8.32;59.48;100461.29;128190;1101;61999;-79
2021/05/07 10:02:03;;;;;;;2.03;1.50;;;;;;;8.44;59.90;100462.64;128373;1101;62367;-79
2021/05/07 10:04:30;;;;;;;2.70;1.50;;;;;;;8.48;57.77;100456.03;128391;1101;62260;-78
2021/05/07 10:06:56;;;;;;;1.57;1.20;;;;;;;8.53;56.27;100468.74;128388;1101;62235;-77
2021/05/07 10:09:25;;;;;;;2.73;1.70;;;;;;;8.65;58.41;100461.27;128319;1101;62525;-78
2021/05/07 10:11:54;;;;;;;2.20;1.20;;;;;;;8.85;58.58;100465.20;128417;1101;62296;-79
2021/05/07 10:14:25;;;;;;;4.00;1.70;;;;;;;8.99;54.55;100468.98;128389;1101;64201;-79
2021/05/07 10:16:52;;;;;;;2.77;1.43;;;;;;;8.95;55.44;100472.97;128382;1101;62460;-78
2021/05/07 10:19:22;;;;;;;3.60;1.73;;;;;;;9.14;55.48;100482.33;128332;1101;62510;-79
2021/05/07 10:22:03;;;;;;;2.60;1.63;;;;;;;9.37;55.20;100470.00;128414;1101;62179;-78
2021/05/07 10:24:36;;;;;;;2.17;1.30;;;;;;;9.46;53.63;100480.55;128136;1101;62383;-80
2021/05/07 10:27:15;;;;;;;3.60;1.33;;;;;;;9.34;53.13;100488.86;128439;1101;63118;-79
2021/05/07 10:29:58;;;;;;;2.30;1.40;;;;;;;9.20;53.34;100486.92;128484;1101;62575;-78
2021/05/07 10:32:37;;;;;;;1.53;0.97;;;;;;;9.04;55.20;100487.81;128411;1101;63012;-77
2021/05/07 10:35:05;;;;;;;1.70;1.20;;;;;;;9.18;54.71;100494.23;128143;1102;62293;-78
2021/05/07 10:37:41;;;;;;;2.10;1.00;;;;;;;9.24;54.80;100496.17;128389;1101;61992;-77
2021/05/07 10:40:12;;;;;;;1.60;1.00;;;;;;;9.12;53.80;100486.97;128421;1101;62933;-77
2021/05/07 10:42:38;;;;;;;2.80;1.00;;;;;;;9.08;55.02;100509.47;128454;1101;62070;-77
2021/05/07 10:45:06;;;;;;;2.83;1.37;;;;;;;8.94;55.25;100508.34;128304;1101;63094;-77
2021/05/07 10:47:39;;;;;;;2.13;1.50;;;;;;;8.98;55.15;100507.01;128327;1101;63216;-77
2021/05/07 10:50:16;;;;;;;3.45;1.50;;;;;;;8.97;56.67;100508.83;128383;1101;62761;-78
2021/05/07 10:52:43;;;;;;;1.80;1.30;;;;;;;9.09;55.46;100511.11;128454;1101;62796;-77
2021/05/07 10:55:11;;;;;;;2.73;1.37;;;;;;;9.20;55.24;100513.38;128430;1101;62101;-77
2021/05/07 10:57:39;;;;;;;1.90;1.27;;;;;;;9.34;53.58;100541.80;128446;1101;62083;-77
2021/05/07 11:00:12;;;;;;;2.60;1.60;;;;;;;9.34;55.63;100509.22;128394;1101;62286;-78
2021/05/07 11:02:42;;;;;;;2.23;1.53;;;;;;;9.37;54.83;100524.74;128437;1101;62257;-77
2021/05/07 11:05:11;;;;;;;3.03;1.37;;;;;;;9.25;53.02;100537.53;128386;1101;62870;-77
2021/05/07 11:07:38;;;;;;;1.53;1.10;;;;;;;8.96;54.66;100538.91;128408;1101;62276;-77
2021/05/07 11:10:10;;;;;;;1.67;1.10;;;;;;;8.83;53.76;100532.50;128458;1101;63904;-78
2021/05/07 11:12:43;;;;;;;2.30;1.53;;;;;;;8.68;55.35;100527.06;128486;1102;62020;-75
2021/05/07 11:15:19;;;;;;;2.30;1.30;;;;;;;8.60;55.83;100533.17;128424;1101;62044;-75
2021/05/07 11:17:57;;;;;;;1.73;1.13;;;;;;;8.57;54.94;100531.69;128530;1101;62798;-74
2021/05/07 11:20:32;;;;;;;2.80;1.50;;;;;;;8.70;55.23;100538.30;128422;1101;62337;-76
2021/05/07 11:23:01;;;;;;;3.73;1.73;;;;;;;8.93;56.42;100538.45;128454;1101;62034;-78
2021/05/07 11:25:30;;;;;;;3.33;2.60;;;;;;;9.06;55.48;100545.86;128456;1101;62329;-80
2021/05/07 11:28:08;;;;;;;3.47;2.10;;;;;;;9.22;53.90;100558.22;128475;1101;62264;-79
2021/05/07 11:30:34;;;;;;;2.70;1.67;;;;;;;9.38;54.14;100551.05;128189;1101;62201;-78
2021/05/07 11:33:07;;;;;;;3.77;1.50;;;;;;;9.51;53.92;100545.22;128459;1101;62904;-78